Weather at East Texas Regional Airport

Public forecast

Using degrees Fahrenheit for public forecast. Weather courtesy of forecast.io.

Current aviation weather report (METAR) for East Texas Regional Airport

Retrieved 2021/08/04 03:53 UTC (53 minutes ago):

KGGG 040353Z AUTO 00000KT 10SM CLR 23/22 A2999 RMK AO2 SLP148 T02330217

Aviation forecast (TAF) for East Texas Regional Airport

Retrieved 2021-08-04 00:42 UTC (4 hours ago):

TAF KGGG 032339Z 0400/0424 05007KT P6SM FEW040 FM040100 06004KT P6SM SKC FM041400 08007KT P6SM SKC